Ojito, New Mexico
Current Conditions -  °F | °C
As of 1:35 PM on Monday 22 Dec 2014 (Local Time) from KLAM Reporting Station
Broken Clouds Broken Clouds  
Wind Chill: 37°   Ceiling: 5500
Heat Index: 45°   Visibility: 10mi
Dew Point: 31°   Wind: 21mph
Humidity: 57%   Direction: 250°WSW
Pressure: 29.72"   Gusts: 26mph
Location:  36.3753°N, 106.933°W
Report Text: KLAM 222035Z AUTO 25018G23KT 10SM SCT033 SCT042 BKN055 07/M01 A2972 RMK AO2 T00731008
Loading
Personal Weather Stations






























Interactive Weather Map New forecast layout! Learn more

10-Day Weather Forecast

Advertisements
Track Severe Weather on mobile